sensor_id;sensor_type;location;lat;lon;timestamp;P1;durP1;ratioP1;P2;durP2;ratioP2
70049;SDS011;57391;51.306;22.680;2024-02-26T00:01:44;12.40;;;7.90;;
70049;SDS011;57391;51.306;22.680;2024-02-26T00:03:45;11.30;;;6.80;;
70049;SDS011;57391;51.306;22.680;2024-02-26T00:05:48;10.90;;;6.70;;
70049;SDS011;57391;51.306;22.680;2024-02-26T00:07:50;11.70;;;6.90;;
70049;SDS011;57391;51.306;22.680;2024-02-26T00:09:52;13.10;;;7.40;;
70049;SDS011;57391;51.306;22.680;2024-02-26T00:11:53;12.70;;;7.30;;
70049;SDS011;57391;51.306;22.680;2024-02-26T00:13:56;12.60;;;7.30;;
70049;SDS011;57391;51.306;22.680;2024-02-26T00:15:59;11.40;;;7.00;;
70049;SDS011;57391;51.306;22.680;2024-02-26T00:18:01;12.10;;;7.30;;
70049;SDS011;57391;51.306;22.680;2024-02-26T00:20:03;12.20;;;7.70;;
70049;SDS011;57391;51.306;22.680;2024-02-26T00:22:09;11.10;;;6.70;;
70049;SDS011;57391;51.306;22.680;2024-02-26T00:24:11;11.90;;;7.00;;
70049;SDS011;57391;51.306;22.680;2024-02-26T00:26:13;11.50;;;6.70;;
70049;SDS011;57391;51.306;22.680;2024-02-26T00:28:14;12.20;;;6.60;;
70049;SDS011;57391;51.306;22.680;2024-02-26T00:30:16;10.80;;;6.10;;
70049;SDS011;57391;51.306;22.680;2024-02-26T00:32:18;10.80;;;6.70;;
70049;SDS011;57391;51.306;22.680;2024-02-26T00:34:20;11.10;;;6.90;;
70049;SDS011;57391;51.306;22.680;2024-02-26T00:36:21;11.10;;;6.70;;
70049;SDS011;57391;51.306;22.680;2024-02-26T00:38:23;9.20;;;5.80;;
70049;SDS011;57391;51.306;22.680;2024-02-26T00:40:25;10.70;;;6.60;;
70049;SDS011;57391;51.306;22.680;2024-02-26T00:42:26;13.00;;;7.10;;
70049;SDS011;57391;51.306;22.680;2024-02-26T00:44:28;11.40;;;6.50;;
70049;SDS011;57391;51.306;22.680;2024-02-26T00:46:30;11.60;;;6.70;;
70049;SDS011;57391;51.306;22.680;2024-02-26T00:48:31;11.00;;;7.00;;
70049;SDS011;57391;51.306;22.680;2024-02-26T00:50:34;10.60;;;6.70;;
70049;SDS011;57391;51.306;22.680;2024-02-26T00:52:35;10.60;;;7.00;;
70049;SDS011;57391;51.306;22.680;2024-02-26T00:54:37;11.60;;;7.40;;
70049;SDS011;57391;51.306;22.680;2024-02-26T00:56:39;11.90;;;7.50;;
70049;SDS011;57391;51.306;22.680;2024-02-26T00:58:41;11.60;;;7.40;;
70049;SDS011;57391;51.306;22.680;2024-02-26T01:00:42;12.30;;;7.50;;
70049;SDS011;57391;51.306;22.680;2024-02-26T01:02:44;18.70;;;9.30;;
70049;SDS011;57391;51.306;22.680;2024-02-26T01:04:48;15.10;;;8.80;;
70049;SDS011;57391;51.306;22.680;2024-02-26T01:06:50;12.20;;;7.70;;
70049;SDS011;57391;51.306;22.680;2024-02-26T01:08:52;12.80;;;7.20;;
70049;SDS011;57391;51.306;22.680;2024-02-26T01:10:54;13.20;;;7.60;;
70049;SDS011;57391;51.306;22.680;2024-02-26T01:12:55;10.80;;;7.10;;
70049;SDS011;57391;51.306;22.680;2024-02-26T01:14:57;9.50;;;6.40;;
70049;SDS011;57391;51.306;22.680;2024-02-26T01:16:59;11.00;;;7.30;;
70049;SDS011;57391;51.306;22.680;2024-02-26T01:19:01;11.40;;;6.90;;
70049;SDS011;57391;51.306;22.680;2024-02-26T01:21:04;11.50;;;6.80;;
70049;SDS011;57391;51.306;22.680;2024-02-26T01:23:10;10.90;;;7.00;;
70049;SDS011;57391;51.306;22.680;2024-02-26T01:25:12;10.90;;;6.80;;
70049;SDS011;57391;51.306;22.680;2024-02-26T01:27:14;9.40;;;6.70;;
70049;SDS011;57391;51.306;22.680;2024-02-26T01:29:17;11.10;;;7.20;;
70049;SDS011;57391;51.306;22.680;2024-02-26T01:31:18;11.00;;;6.70;;
70049;SDS011;57391;51.306;22.680;2024-02-26T01:33:20;11.10;;;6.80;;
70049;SDS011;57391;51.306;22.680;2024-02-26T01:35:22;10.50;;;7.10;;
70049;SDS011;57391;51.306;22.680;2024-02-26T01:37:24;12.20;;;6.50;;
70049;SDS011;57391;51.306;22.680;2024-02-26T01:39:26;10.90;;;6.50;;
70049;SDS011;57391;51.306;22.680;2024-02-26T01:41:30;10.80;;;7.10;;
70049;SDS011;57391;51.306;22.680;2024-02-26T01:43:32;13.10;;;7.50;;
70049;SDS011;57391;51.306;22.680;2024-02-26T01:45:33;11.90;;;6.70;;
70049;SDS011;57391;51.306;22.680;2024-02-26T01:47:35;12.50;;;6.90;;
70049;SDS011;57391;51.306;22.680;2024-02-26T01:49:37;13.00;;;7.50;;
70049;SDS011;57391;51.306;22.680;2024-02-26T01:51:41;10.50;;;6.60;;
70049;SDS011;57391;51.306;22.680;2024-02-26T01:53:44;10.90;;;7.10;;
70049;SDS011;57391;51.306;22.680;2024-02-26T01:55:46;10.40;;;6.80;;
70049;SDS011;57391;51.306;22.680;2024-02-26T01:57:49;9.90;;;6.90;;
70049;SDS011;57391;51.306;22.680;2024-02-26T01:59:53;11.10;;;6.50;;
70049;SDS011;57391;51.306;22.680;2024-02-26T02:01:57;12.80;;;7.30;;
70049;SDS011;57391;51.306;22.680;2024-02-26T02:04:03;11.40;;;6.50;;
70049;SDS011;57391;51.306;22.680;2024-02-26T02:06:05;11.80;;;7.50;;
70049;SDS011;57391;51.306;22.680;2024-02-26T02:08:13;12.10;;;8.20;;
70049;SDS011;57391;51.306;22.680;2024-02-26T02:10:16;13.20;;;7.60;;
70049;SDS011;57391;51.306;22.680;2024-02-26T02:12:19;14.90;;;9.00;;
70049;SDS011;57391;51.306;22.680;2024-02-26T02:14:21;12.70;;;8.40;;
70049;SDS011;57391;51.306;22.680;2024-02-26T02:16:23;13.70;;;9.60;;
70049;SDS011;57391;51.306;22.680;2024-02-26T02:18:25;14.10;;;8.70;;
70049;SDS011;57391;51.306;22.680;2024-02-26T02:20:33;14.40;;;9.40;;
70049;SDS011;57391;51.306;22.680;2024-02-26T02:22:36;15.20;;;9.30;;
70049;SDS011;57391;51.306;22.680;2024-02-26T02:24:37;13.70;;;8.60;;
70049;SDS011;57391;51.306;22.680;2024-02-26T02:26:39;15.70;;;10.80;;
70049;SDS011;57391;51.306;22.680;2024-02-26T02:28:41;14.80;;;9.70;;
70049;SDS011;57391;51.306;22.680;2024-02-26T02:30:43;15.30;;;9.60;;
70049;SDS011;57391;51.306;22.680;2024-02-26T02:32:45;14.20;;;9.20;;
70049;SDS011;57391;51.306;22.680;2024-02-26T02:34:47;19.80;;;13.90;;
70049;SDS011;57391;51.306;22.680;2024-02-26T02:36:52;18.00;;;12.30;;
70049;SDS011;57391;51.306;22.680;2024-02-26T02:38:54;17.00;;;12.00;;
70049;SDS011;57391;51.306;22.680;2024-02-26T02:40:56;15.20;;;11.00;;
70049;SDS011;57391;51.306;22.680;2024-02-26T02:42:58;14.00;;;9.00;;
70049;SDS011;57391;51.306;22.680;2024-02-26T02:45:01;16.00;;;9.00;;
70049;SDS011;57391;51.306;22.680;2024-02-26T02:47:03;15.90;;;9.40;;
70049;SDS011;57391;51.306;22.680;2024-02-26T02:49:08;12.90;;;8.00;;
70049;SDS011;57391;51.306;22.680;2024-02-26T02:51:11;14.10;;;8.50;;
70049;SDS011;57391;51.306;22.680;2024-02-26T02:53:13;13.20;;;7.90;;
70049;SDS011;57391;51.306;22.680;2024-02-26T02:55:18;15.60;;;8.10;;
70049;SDS011;57391;51.306;22.680;2024-02-26T02:57:19;15.00;;;8.40;;
70049;SDS011;57391;51.306;22.680;2024-02-26T02:59:21;13.30;;;7.90;;
70049;SDS011;57391;51.306;22.680;2024-02-26T03:01:23;15.40;;;8.90;;
70049;SDS011;57391;51.306;22.680;2024-02-26T03:03:25;19.50;;;9.10;;
70049;SDS011;57391;51.306;22.680;2024-02-26T03:05:27;16.70;;;8.50;;
70049;SDS011;57391;51.306;22.680;2024-02-26T03:07:29;15.30;;;8.60;;
70049;SDS011;57391;51.306;22.680;2024-02-26T03:09:31;13.00;;;7.50;;
70049;SDS011;57391;51.306;22.680;2024-02-26T03:11:32;10.60;;;6.80;;
70049;SDS011;57391;51.306;22.680;2024-02-26T03:13:34;16.80;;;8.00;;
70049;SDS011;57391;51.306;22.680;2024-02-26T03:15:36;13.40;;;8.00;;
70049;SDS011;57391;51.306;22.680;2024-02-26T03:17:37;13.20;;;7.40;;
70049;SDS011;57391;51.306;22.680;2024-02-26T03:19:39;11.10;;;7.30;;
70049;SDS011;57391;51.306;22.680;2024-02-26T03:21:41;11.10;;;7.20;;
70049;SDS011;57391;51.306;22.680;2024-02-26T03:23:43;11.70;;;8.00;;
70049;SDS011;57391;51.306;22.680;2024-02-26T03:25:45;12.00;;;7.30;;
70049;SDS011;57391;51.306;22.680;2024-02-26T03:27:49;13.60;;;8.60;;
70049;SDS011;57391;51.306;22.680;2024-02-26T03:29:51;15.70;;;9.50;;
70049;SDS011;57391;51.306;22.680;2024-02-26T03:31:54;13.80;;;8.70;;
70049;SDS011;57391;51.306;22.680;2024-02-26T03:33:55;13.30;;;8.30;;
70049;SDS011;57391;51.306;22.680;2024-02-26T03:35:57;13.50;;;8.60;;
70049;SDS011;57391;51.306;22.680;2024-02-26T03:37:59;14.60;;;8.70;;
70049;SDS011;57391;51.306;22.680;2024-02-26T03:40:00;14.30;;;8.60;;
70049;SDS011;57391;51.306;22.680;2024-02-26T03:42:03;14.10;;;9.00;;
70049;SDS011;57391;51.306;22.680;2024-02-26T03:44:05;18.70;;;9.60;;
70049;SDS011;57391;51.306;22.680;2024-02-26T03:46:07;14.70;;;9.30;;
70049;SDS011;57391;51.306;22.680;2024-02-26T03:48:10;13.40;;;8.90;;
70049;SDS011;57391;51.306;22.680;2024-02-26T03:50:11;13.50;;;8.80;;
70049;SDS011;57391;51.306;22.680;2024-02-26T03:52:13;13.90;;;7.50;;
70049;SDS011;57391;51.306;22.680;2024-02-26T03:54:16;13.10;;;8.60;;
70049;SDS011;57391;51.306;22.680;2024-02-26T03:56:18;16.00;;;8.90;;
70049;SDS011;57391;51.306;22.680;2024-02-26T03:58:19;15.70;;;9.20;;
70049;SDS011;57391;51.306;22.680;2024-02-26T04:00:21;16.40;;;9.80;;
70049;SDS011;57391;51.306;22.680;2024-02-26T04:02:24;14.70;;;9.80;;
70049;SDS011;57391;51.306;22.680;2024-02-26T04:04:26;13.60;;;9.10;;
70049;SDS011;57391;51.306;22.680;2024-02-26T04:06:28;18.90;;;11.10;;
70049;SDS011;57391;51.306;22.680;2024-02-26T04:08:30;17.40;;;10.90;;
70049;SDS011;57391;51.306;22.680;2024-02-26T04:10:32;16.50;;;10.70;;
70049;SDS011;57391;51.306;22.680;2024-02-26T04:12:41;17.80;;;10.80;;
70049;SDS011;57391;51.306;22.680;2024-02-26T04:14:43;18.30;;;10.50;;
70049;SDS011;57391;51.306;22.680;2024-02-26T04:16:45;18.80;;;12.10;;
70049;SDS011;57391;51.306;22.680;2024-02-26T04:18:47;18.10;;;11.00;;
70049;SDS011;57391;51.306;22.680;2024-02-26T04:20:49;18.90;;;11.20;;
70049;SDS011;57391;51.306;22.680;2024-02-26T04:22:52;17.40;;;11.00;;
70049;SDS011;57391;51.306;22.680;2024-02-26T04:24:54;14.80;;;9.90;;
70049;SDS011;57391;51.306;22.680;2024-02-26T04:26:56;15.40;;;9.70;;
70049;SDS011;57391;51.306;22.680;2024-02-26T04:28:58;18.80;;;11.40;;
70049;SDS011;57391;51.306;22.680;2024-02-26T04:30:59;18.20;;;11.30;;
70049;SDS011;57391;51.306;22.680;2024-02-26T04:33:02;19.10;;;12.40;;
70049;SDS011;57391;51.306;22.680;2024-02-26T04:35:04;18.10;;;11.80;;
70049;SDS011;57391;51.306;22.680;2024-02-26T04:37:06;18.00;;;10.50;;
70049;SDS011;57391;51.306;22.680;2024-02-26T04:39:08;17.20;;;11.40;;
70049;SDS011;57391;51.306;22.680;2024-02-26T04:41:11;26.50;;;16.60;;
70049;SDS011;57391;51.306;22.680;2024-02-26T04:43:13;20.20;;;13.40;;
70049;SDS011;57391;51.306;22.680;2024-02-26T04:45:15;18.10;;;12.00;;
70049;SDS011;57391;51.306;22.680;2024-02-26T04:47:17;15.30;;;10.40;;
70049;SDS011;57391;51.306;22.680;2024-02-26T04:49:19;15.30;;;9.20;;
70049;SDS011;57391;51.306;22.680;2024-02-26T04:51:20;14.10;;;9.20;;
70049;SDS011;57391;51.306;22.680;2024-02-26T04:53:22;13.80;;;8.80;;
70049;SDS011;57391;51.306;22.680;2024-02-26T04:55:24;14.30;;;9.40;;
70049;SDS011;57391;51.306;22.680;2024-02-26T04:57:26;15.90;;;10.10;;
70049;SDS011;57391;51.306;22.680;2024-02-26T04:59:28;15.90;;;9.80;;
70049;SDS011;57391;51.306;22.680;2024-02-26T05:01:30;16.40;;;9.10;;
70049;SDS011;57391;51.306;22.680;2024-02-26T05:03:32;14.40;;;8.10;;
70049;SDS011;57391;51.306;22.680;2024-02-26T05:05:37;14.00;;;8.50;;
70049;SDS011;57391;51.306;22.680;2024-02-26T05:07:40;14.70;;;9.20;;
70049;SDS011;57391;51.306;22.680;2024-02-26T05:09:46;15.40;;;10.20;;
70049;SDS011;57391;51.306;22.680;2024-02-26T05:11:50;15.00;;;9.50;;
70049;SDS011;57391;51.306;22.680;2024-02-26T05:13:52;13.90;;;9.60;;
70049;SDS011;57391;51.306;22.680;2024-02-26T05:15:56;14.60;;;9.40;;
70049;SDS011;57391;51.306;22.680;2024-02-26T05:17:58;16.60;;;10.40;;
70049;SDS011;57391;51.306;22.680;2024-02-26T05:20:00;15.80;;;9.80;;
70049;SDS011;57391;51.306;22.680;2024-02-26T05:22:02;19.20;;;10.70;;
70049;SDS011;57391;51.306;22.680;2024-02-26T05:24:04;16.40;;;10.60;;
70049;SDS011;57391;51.306;22.680;2024-02-26T05:26:06;15.30;;;9.70;;
70049;SDS011;57391;51.306;22.680;2024-02-26T05:28:08;15.80;;;10.30;;
70049;SDS011;57391;51.306;22.680;2024-02-26T05:30:11;18.60;;;11.60;;
70049;SDS011;57391;51.306;22.680;2024-02-26T05:32:13;15.60;;;10.60;;
70049;SDS011;57391;51.306;22.680;2024-02-26T05:34:14;18.10;;;10.70;;
70049;SDS011;57391;51.306;22.680;2024-02-26T05:36:23;22.00;;;11.90;;
70049;SDS011;57391;51.306;22.680;2024-02-26T05:38:25;17.10;;;10.10;;
70049;SDS011;57391;51.306;22.680;2024-02-26T05:40:27;16.60;;;10.40;;
70049;SDS011;57391;51.306;22.680;2024-02-26T05:42:29;17.00;;;10.20;;
70049;SDS011;57391;51.306;22.680;2024-02-26T05:44:30;17.00;;;10.30;;
70049;SDS011;57391;51.306;22.680;2024-02-26T05:46:32;16.90;;;10.70;;
70049;SDS011;57391;51.306;22.680;2024-02-26T05:48:34;15.40;;;10.50;;
70049;SDS011;57391;51.306;22.680;2024-02-26T05:50:38;15.90;;;10.10;;
70049;SDS011;57391;51.306;22.680;2024-02-26T05:52:42;16.30;;;10.60;;
70049;SDS011;57391;51.306;22.680;2024-02-26T05:54:44;14.80;;;9.90;;
70049;SDS011;57391;51.306;22.680;2024-02-26T05:56:45;17.30;;;10.30;;
70049;SDS011;57391;51.306;22.680;2024-02-26T05:58:47;17.30;;;11.00;;
70049;SDS011;57391;51.306;22.680;2024-02-26T06:00:49;16.90;;;10.50;;
70049;SDS011;57391;51.306;22.680;2024-02-26T06:02:51;18.10;;;10.80;;
70049;SDS011;57391;51.306;22.680;2024-02-26T06:04:52;16.40;;;10.20;;
70049;SDS011;57391;51.306;22.680;2024-02-26T06:06:54;17.70;;;10.50;;
70049;SDS011;57391;51.306;22.680;2024-02-26T06:08:56;18.40;;;11.50;;
70049;SDS011;57391;51.306;22.680;2024-02-26T06:10:57;17.00;;;10.60;;
70049;SDS011;57391;51.306;22.680;2024-02-26T06:12:59;17.40;;;10.50;;
70049;SDS011;57391;51.306;22.680;2024-02-26T06:15:01;16.00;;;9.60;;
70049;SDS011;57391;51.306;22.680;2024-02-26T06:17:03;17.20;;;10.30;;
70049;SDS011;57391;51.306;22.680;2024-02-26T06:19:05;17.90;;;11.10;;
70049;SDS011;57391;51.306;22.680;2024-02-26T06:21:09;18.20;;;11.20;;
70049;SDS011;57391;51.306;22.680;2024-02-26T06:23:12;24.80;;;14.50;;
70049;SDS011;57391;51.306;22.680;2024-02-26T06:25:13;18.50;;;11.70;;
70049;SDS011;57391;51.306;22.680;2024-02-26T06:27:15;21.20;;;12.50;;
70049;SDS011;57391;51.306;22.680;2024-02-26T06:29:17;18.80;;;11.60;;
70049;SDS011;57391;51.306;22.680;2024-02-26T06:31:19;19.00;;;12.10;;
70049;SDS011;57391;51.306;22.680;2024-02-26T06:33:20;20.50;;;12.10;;
70049;SDS011;57391;51.306;22.680;2024-02-26T06:35:22;18.00;;;11.40;;
70049;SDS011;57391;51.306;22.680;2024-02-26T06:37:24;21.80;;;12.40;;
70049;SDS011;57391;51.306;22.680;2024-02-26T06:39:26;20.50;;;12.50;;
70049;SDS011;57391;51.306;22.680;2024-02-26T06:41:28;20.20;;;12.30;;
70049;SDS011;57391;51.306;22.680;2024-02-26T06:43:31;20.60;;;11.90;;
70049;SDS011;57391;51.306;22.680;2024-02-26T06:45:32;18.50;;;12.60;;
70049;SDS011;57391;51.306;22.680;2024-02-26T06:47:35;21.30;;;12.20;;
70049;SDS011;57391;51.306;22.680;2024-02-26T06:49:38;18.40;;;11.40;;
70049;SDS011;57391;51.306;22.680;2024-02-26T06:51:39;22.30;;;12.70;;
70049;SDS011;57391;51.306;22.680;2024-02-26T06:53:41;20.20;;;11.30;;
70049;SDS011;57391;51.306;22.680;2024-02-26T06:55:43;20.10;;;12.20;;
70049;SDS011;57391;51.306;22.680;2024-02-26T06:57:44;19.70;;;12.50;;
70049;SDS011;57391;51.306;22.680;2024-02-26T06:59:47;20.30;;;12.60;;
70049;SDS011;57391;51.306;22.680;2024-02-26T07:01:48;23.20;;;13.10;;
70049;SDS011;57391;51.306;22.680;2024-02-26T07:03:50;21.60;;;13.50;;
70049;SDS011;57391;51.306;22.680;2024-02-26T07:05:52;23.70;;;13.80;;
70049;SDS011;57391;51.306;22.680;2024-02-26T07:07:54;23.40;;;13.80;;
70049;SDS011;57391;51.306;22.680;2024-02-26T07:09:55;23.00;;;13.50;;
70049;SDS011;57391;51.306;22.680;2024-02-26T07:11:57;25.90;;;14.40;;
70049;SDS011;57391;51.306;22.680;2024-02-26T07:13:59;25.00;;;14.20;;
70049;SDS011;57391;51.306;22.680;2024-02-26T07:16:03;23.10;;;13.30;;
70049;SDS011;57391;51.306;22.680;2024-02-26T07:18:05;23.50;;;13.40;;
70049;SDS011;57391;51.306;22.680;2024-02-26T07:20:08;27.10;;;14.50;;
70049;SDS011;57391;51.306;22.680;2024-02-26T07:22:10;23.00;;;14.80;;
70049;SDS011;57391;51.306;22.680;2024-02-26T07:24:12;22.80;;;14.40;;
70049;SDS011;57391;51.306;22.680;2024-02-26T07:26:14;25.50;;;13.90;;
70049;SDS011;57391;51.306;22.680;2024-02-26T07:28:19;24.80;;;14.60;;
70049;SDS011;57391;51.306;22.680;2024-02-26T07:30:21;23.60;;;14.50;;
70049;SDS011;57391;51.306;22.680;2024-02-26T07:32:22;24.80;;;12.60;;
70049;SDS011;57391;51.306;22.680;2024-02-26T07:34:24;22.60;;;12.40;;
70049;SDS011;57391;51.306;22.680;2024-02-26T07:36:30;21.80;;;12.60;;
70049;SDS011;57391;51.306;22.680;2024-02-26T07:38:32;21.20;;;12.80;;
70049;SDS011;57391;51.306;22.680;2024-02-26T07:40:33;22.40;;;12.10;;
70049;SDS011;57391;51.306;22.680;2024-02-26T07:42:35;17.60;;;11.80;;
70049;SDS011;57391;51.306;22.680;2024-02-26T07:44:37;19.70;;;12.90;;
70049;SDS011;57391;51.306;22.680;2024-02-26T07:46:39;19.60;;;12.50;;
70049;SDS011;57391;51.306;22.680;2024-02-26T07:48:40;19.90;;;12.20;;
70049;SDS011;57391;51.306;22.680;2024-02-26T07:50:43;20.90;;;12.70;;
70049;SDS011;57391;51.306;22.680;2024-02-26T07:52:44;21.40;;;12.00;;
70049;SDS011;57391;51.306;22.680;2024-02-26T07:54:46;22.50;;;12.80;;
70049;SDS011;57391;51.306;22.680;2024-02-26T07:56:48;23.70;;;13.90;;
70049;SDS011;57391;51.306;22.680;2024-02-26T07:58:50;24.00;;;14.10;;
70049;SDS011;57391;51.306;22.680;2024-02-26T08:00:51;23.60;;;14.10;;
70049;SDS011;57391;51.306;22.680;2024-02-26T08:02:53;24.60;;;15.00;;
70049;SDS011;57391;51.306;22.680;2024-02-26T08:04:55;21.40;;;13.80;;
70049;SDS011;57391;51.306;22.680;2024-02-26T08:06:57;24.90;;;15.40;;
70049;SDS011;57391;51.306;22.680;2024-02-26T08:08:58;23.00;;;13.90;;
70049;SDS011;57391;51.306;22.680;2024-02-26T08:11:00;24.50;;;14.00;;
70049;SDS011;57391;51.306;22.680;2024-02-26T08:13:02;24.10;;;14.90;;
70049;SDS011;57391;51.306;22.680;2024-02-26T08:15:07;24.40;;;14.60;;
70049;SDS011;57391;51.306;22.680;2024-02-26T08:17:10;24.90;;;15.00;;
70049;SDS011;57391;51.306;22.680;2024-02-26T08:19:11;24.50;;;14.30;;
70049;SDS011;57391;51.306;22.680;2024-02-26T08:21:16;23.30;;;14.20;;
70049;SDS011;57391;51.306;22.680;2024-02-26T08:23:18;25.90;;;15.60;;
70049;SDS011;57391;51.306;22.680;2024-02-26T08:25:19;24.70;;;15.20;;
70049;SDS011;57391;51.306;22.680;2024-02-26T08:27:21;23.20;;;14.50;;
70049;SDS011;57391;51.306;22.680;2024-02-26T08:29:23;27.20;;;17.00;;
70049;SDS011;57391;51.306;22.680;2024-02-26T08:31:25;26.50;;;15.40;;
70049;SDS011;57391;51.306;22.680;2024-02-26T08:33:27;26.50;;;16.20;;
70049;SDS011;57391;51.306;22.680;2024-02-26T08:35:28;27.70;;;16.60;;
70049;SDS011;57391;51.306;22.680;2024-02-26T08:37:30;27.80;;;16.50;;
70049;SDS011;57391;51.306;22.680;2024-02-26T08:39:32;28.70;;;15.90;;
70049;SDS011;57391;51.306;22.680;2024-02-26T08:41:33;27.30;;;15.40;;
70049;SDS011;57391;51.306;22.680;2024-02-26T08:43:35;25.40;;;15.10;;
70049;SDS011;57391;51.306;22.680;2024-02-26T08:45:37;27.10;;;16.10;;
70049;SDS011;57391;51.306;22.680;2024-02-26T08:47:39;27.80;;;15.60;;
70049;SDS011;57391;51.306;22.680;2024-02-26T08:49:46;25.20;;;15.00;;
70049;SDS011;57391;51.306;22.680;2024-02-26T08:51:48;27.50;;;15.30;;
70049;SDS011;57391;51.306;22.680;2024-02-26T08:53:50;25.10;;;15.60;;
70049;SDS011;57391;51.306;22.680;2024-02-26T08:55:52;23.50;;;15.10;;
70049;SDS011;57391;51.306;22.680;2024-02-26T08:57:54;25.80;;;15.90;;
70049;SDS011;57391;51.306;22.680;2024-02-26T08:59:55;26.90;;;15.40;;
70049;SDS011;57391;51.306;22.680;2024-02-26T09:01:57;23.20;;;14.40;;
70049;SDS011;57391;51.306;22.680;2024-02-26T09:03:59;27.60;;;15.80;;
70049;SDS011;57391;51.306;22.680;2024-02-26T09:06:01;26.10;;;14.50;;
70049;SDS011;57391;51.306;22.680;2024-02-26T09:08:03;22.90;;;14.50;;
70049;SDS011;57391;51.306;22.680;2024-02-26T09:10:06;26.80;;;15.30;;
70049;SDS011;57391;51.306;22.680;2024-02-26T09:12:11;24.60;;;14.40;;
70049;SDS011;57391;51.306;22.680;2024-02-26T09:14:13;24.50;;;14.50;;
70049;SDS011;57391;51.306;22.680;2024-02-26T09:16:15;24.40;;;14.80;;
70049;SDS011;57391;51.306;22.680;2024-02-26T09:18:17;26.80;;;15.10;;
70049;SDS011;57391;51.306;22.680;2024-02-26T09:20:18;24.70;;;14.00;;
70049;SDS011;57391;51.306;22.680;2024-02-26T09:22:21;21.60;;;13.10;;
70049;SDS011;57391;51.306;22.680;2024-02-26T09:24:23;22.70;;;13.90;;
70049;SDS011;57391;51.306;22.680;2024-02-26T09:26:25;21.60;;;14.00;;
70049;SDS011;57391;51.306;22.680;2024-02-26T09:28:27;23.20;;;12.80;;
70049;SDS011;57391;51.306;22.680;2024-02-26T09:30:31;19.30;;;10.70;;
70049;SDS011;57391;51.306;22.680;2024-02-26T09:32:33;23.30;;;14.00;;
70049;SDS011;57391;51.306;22.680;2024-02-26T09:34:35;21.30;;;13.70;;
70049;SDS011;57391;51.306;22.680;2024-02-26T09:36:38;21.40;;;13.90;;
70049;SDS011;57391;51.306;22.680;2024-02-26T09:38:39;23.80;;;14.00;;
70049;SDS011;57391;51.306;22.680;2024-02-26T09:40:41;25.60;;;15.30;;
70049;SDS011;57391;51.306;22.680;2024-02-26T09:42:44;28.20;;;16.70;;
70049;SDS011;57391;51.306;22.680;2024-02-26T09:44:50;34.20;;;18.50;;
70049;SDS011;57391;51.306;22.680;2024-02-26T09:46:55;33.40;;;18.60;;
70049;SDS011;57391;51.306;22.680;2024-02-26T09:48:57;30.10;;;16.20;;
70049;SDS011;57391;51.306;22.680;2024-02-26T09:51:00;27.70;;;16.40;;
70049;SDS011;57391;51.306;22.680;2024-02-26T09:53:04;37.80;;;18.70;;
70049;SDS011;57391;51.306;22.680;2024-02-26T09:55:08;34.10;;;16.90;;
70049;SDS011;57391;51.306;22.680;2024-02-26T09:57:12;31.90;;;17.90;;
70049;SDS011;57391;51.306;22.680;2024-02-26T09:59:18;23.60;;;13.80;;
70049;SDS011;57391;51.306;22.680;2024-02-26T10:01:20;24.10;;;13.90;;
70049;SDS011;57391;51.306;22.680;2024-02-26T10:03:25;22.50;;;13.70;;
70049;SDS011;57391;51.306;22.680;2024-02-26T10:05:33;19.70;;;12.70;;
70049;SDS011;57391;51.306;22.680;2024-02-26T10:07:37;25.50;;;13.50;;
70049;SDS011;57391;51.306;22.680;2024-02-26T10:09:40;21.90;;;12.50;;
70049;SDS011;57391;51.306;22.680;2024-02-26T10:11:42;24.60;;;13.00;;
70049;SDS011;57391;51.306;22.680;2024-02-26T10:13:44;26.30;;;13.50;;
70049;SDS011;57391;51.306;22.680;2024-02-26T10:15:46;21.40;;;12.90;;
70049;SDS011;57391;51.306;22.680;2024-02-26T10:17:48;21.40;;;13.10;;
70049;SDS011;57391;51.306;22.680;2024-02-26T10:19:49;19.40;;;12.40;;
70049;SDS011;57391;51.306;22.680;2024-02-26T10:21:56;19.30;;;11.00;;
70049;SDS011;57391;51.306;22.680;2024-02-26T10:23:59;21.20;;;12.90;;
70049;SDS011;57391;51.306;22.680;2024-02-26T10:26:01;20.90;;;11.80;;
70049;SDS011;57391;51.306;22.680;2024-02-26T10:28:03;21.50;;;13.00;;
70049;SDS011;57391;51.306;22.680;2024-02-26T10:30:20;19.40;;;12.70;;
70049;SDS011;57391;51.306;22.680;2024-02-26T10:32:22;21.90;;;12.80;;
70049;SDS011;57391;51.306;22.680;2024-02-26T10:34:26;21.80;;;12.70;;
70049;SDS011;57391;51.306;22.680;2024-02-26T10:36:28;23.40;;;13.10;;
70049;SDS011;57391;51.306;22.680;2024-02-26T10:38:30;21.40;;;12.40;;
70049;SDS011;57391;51.306;22.680;2024-02-26T10:40:31;22.10;;;12.00;;
70049;SDS011;57391;51.306;22.680;2024-02-26T10:42:33;18.80;;;11.90;;
70049;SDS011;57391;51.306;22.680;2024-02-26T10:44:35;22.20;;;12.60;;
70049;SDS011;57391;51.306;22.680;2024-02-26T10:46:37;21.90;;;13.10;;
70049;SDS011;57391;51.306;22.680;2024-02-26T10:48:39;20.50;;;12.80;;
70049;SDS011;57391;51.306;22.680;2024-02-26T10:50:41;22.00;;;12.40;;
70049;SDS011;57391;51.306;22.680;2024-02-26T10:52:43;19.00;;;11.80;;
70049;SDS011;57391;51.306;22.680;2024-02-26T10:54:47;23.50;;;13.30;;
70049;SDS011;57391;51.306;22.680;2024-02-26T10:56:49;23.20;;;13.10;;
70049;SDS011;57391;51.306;22.680;2024-02-26T10:58:52;33.50;;;17.30;;
70049;SDS011;57391;51.306;22.680;2024-02-26T11:00:56;48.30;;;26.00;;
70049;SDS011;57391;51.306;22.680;2024-02-26T11:02:58;26.50;;;14.30;;
70049;SDS011;57391;51.306;22.680;2024-02-26T11:05:05;21.70;;;12.10;;
70049;SDS011;57391;51.306;22.680;2024-02-26T11:07:09;20.60;;;12.40;;
70049;SDS011;57391;51.306;22.680;2024-02-26T11:09:13;22.60;;;12.10;;
70049;SDS011;57391;51.306;22.680;2024-02-26T11:11:19;22.80;;;13.00;;
70049;SDS011;57391;51.306;22.680;2024-02-26T11:13:23;22.40;;;13.90;;
70049;SDS011;57391;51.306;22.680;2024-02-26T11:15:32;22.80;;;13.70;;
70049;SDS011;57391;51.306;22.680;2024-02-26T11:17:35;23.80;;;14.80;;
70049;SDS011;57391;51.306;22.680;2024-02-26T11:19:41;23.40;;;14.90;;
70049;SDS011;57391;51.306;22.680;2024-02-26T11:21:44;23.30;;;13.70;;
70049;SDS011;57391;51.306;22.680;2024-02-26T11:23:47;23.30;;;14.20;;
70049;SDS011;57391;51.306;22.680;2024-02-26T11:25:54;25.50;;;15.70;;
70049;SDS011;57391;51.306;22.680;2024-02-26T11:28:04;25.10;;;14.50;;
70049;SDS011;57391;51.306;22.680;2024-02-26T11:30:12;20.10;;;12.80;;
70049;SDS011;57391;51.306;22.680;2024-02-26T11:32:15;26.00;;;14.20;;
70049;SDS011;57391;51.306;22.680;2024-02-26T11:34:17;27.30;;;13.90;;
70049;SDS011;57391;51.306;22.680;2024-02-26T11:36:20;24.10;;;15.20;;
70049;SDS011;57391;51.306;22.680;2024-02-26T11:38:24;26.50;;;14.20;;
70049;SDS011;57391;51.306;22.680;2024-02-26T11:40:28;21.60;;;13.20;;
70049;SDS011;57391;51.306;22.680;2024-02-26T11:42:30;21.40;;;14.10;;
70049;SDS011;57391;51.306;22.680;2024-02-26T11:44:32;20.70;;;12.20;;
70049;SDS011;57391;51.306;22.680;2024-02-26T11:46:39;23.80;;;14.30;;
70049;SDS011;57391;51.306;22.680;2024-02-26T11:48:43;20.70;;;13.70;;
70049;SDS011;57391;51.306;22.680;2024-02-26T11:50:52;20.50;;;13.00;;